Tuesday, September 02, 2014
21:24 UTC
  |  Log In   |  Register Free
Airport Search:

Page Field Airport
(KFMY)

FAA data valid effective July 24, 2014 until September 18, 2014 (unless otherwise noted).

 
 
 
 
 
 
 
 
 
 
 
 
 
 

Current Aviation Weather for Page Field Airport (KFMY)

The most recent METAR observation for KFMY was updated at: 2053 UTC
METAR Summary (Translated METAR)
KFMY
022053Z 20010KT 10SM VCTS FEW055 BKN070 BKN090 27/24 A2999 RMK AO2 LTG DSNT SE-W RAB1956E23 SLP159 P0009 60009 T02720239 56013
KRSW
(6.5 nm SE from KFMY)
021953Z 13009KT 5SM -RA FEW046 BKN060 OVC075 27/23 A3001 RMK AO2 LTG DSNT SE AND SW RAB23 SLP158 P0011 T02720228
TAF Summary (Translated TAF)
KFMY
021724Z 0218/0318 12007KT P6SM VCTS SCT050CB BKN150 FM030000 08004KT P6SM FEW050 SCT250 FM031400 09006KT P6SM SCT030 SCT100
KRSW
(6.5 nm SE from KFMY)
021724Z 0218/0318 11007KT P6SM VCTS SCT050CB BKN150 FM030000 07004KT P6SM FEW050 SCT250 FM031400 08006KT P6SM SCT030 SCT100
  Airport Weather Conditions for KFMY

 Current Weather at FMY
81° F
Thunderstorm in Vicinity
South winds at 11.5 mph
FMY NOAA Radar

Pressure: 29.99 in
Humidity: 82%
Wind: South at 11.5 MPH (10 KT)
Dew Point: 75.0°F
Visibility: 10.00 mi


Airport Weather Forecast for KFMY

Translated METAR and TAF for KFMY
Translated METAR for KFMY (2118 UTC 02 September 2014)
found at http://aviationweather.gov/adds/metars/
 
METAR text: KFMY 022111Z 24008KT 10SM FEW095 27/23 A2999 RMK AO2 LTG DSNT ALQDS T02670233
Conditions at: KFMY (FORT MYERS , FL, US) observed 2111 UTC 02 September 2014
Temperature: 26.7°C (80°F)
Dewpoint: 23.3°C (74°F) [RH = 82%]
Pressure (altimeter): 29.99 inches Hg (1015.7 mb)
Winds: from the WSW (240 degrees) at 9 MPH (8 knots; 4.2 m/s)
Visibility: 10 or more miles (16+ km)
Ceiling: at least 12,000 feet AGL
Clouds: few clouds at 9500 feet AGL
Weather: no significant weather observed at this time
Translated TAF for KFMY
Forecast for: KFMY (FORT MYERS , FL, US)
TAF Text: KFMY 021820Z 0218/0318 12007KT P6SM VCTS SCT050CB BKN150
Forecast period: 1800 UTC 02 September 2014 to 0000 UTC 03 September 2014
Forecast type: FROM: standard forecast or significant change
Winds: from the ESE (120 degrees) at 8 MPH (7 knots; 3.6 m/s)
Visibility: 6 or more miles (10+ km)
Ceiling: 15000 feet AGL
Clouds: scattered clouds at 5000 feet AGL
broken clouds at 15000 feet AGL
Weather: VCTS  (thunderstorm in vicinity)
TAF Text: TEMPO 0218/0221 VRB12G25KT 3SM TSRA BKN030CB
Forecast period: 1800 to 2100 UTC 02 September 2014
Forecast type: TEMPORARY: The following changes expected for less than half the time period
Winds: variable direction winds at 14 MPH (12 knots; 6.2 m/s)
gusting to 29 MPH (25 knots; 13.0 m/s)
Visibility: 3 miles (5 km)
Ceiling: 3000 feet AGL
Clouds: broken clouds at 3000 feet AGL
Weather: TSRA  (rain associated with thunderstorm(s))
TAF Text: FM030000 08004KT P6SM FEW050 SCT250
Forecast period: 0000 to 1400 UTC 03 September 2014
Forecast type: FROM: standard forecast or significant change
Winds: from the E (80 degrees) at 5 MPH (4 knots; 2.1 m/s)
Visibility: 6 or more miles (10+ km)
Clouds: few clouds at 5000 feet AGL
scattered clouds at 25000 feet AGL
Weather: no significant weather forecast for this period
TAF Text: FM031400 09006KT P6SM SCT030 SCT100
Forecast period: 1400 to 1800 UTC 03 September 2014
Forecast type: FROM: standard forecast or significant change
Winds: from the E (90 degrees) at 7 MPH (6 knots; 3.1 m/s)
Visibility: 6 or more miles (10+ km)
Clouds: scattered clouds at 3000 feet AGL
scattered clouds at 10000 feet AGL
Weather: no significant weather forecast for this period

Find All Airport Services Find A Hotel Find A Rental Car Find A Golf Course Find A Restaurant $100 Hamburger



FBO's on the Field
FBO Company Facility Photos Services Transportation Aviation Fuel Prices: Prices include tax
Catering Weather Repair Courtesy Rental Type 100LL JetA JetA+ MOGAS 8087
 
Base Operations at Page Field

Currently rated 4.8 by 2 people
FS:Avfuel
Last Updated: Sep-02
Login to update fuel prices
SS:
Contact Base Operations at Page FieldMore FBO Information
 
Add another FBO Facility Photos Catering Weather Repair Courtesy Rental Type 100LL JetA JetA+ MOGAS 8087
Services Transportation Aviation Fuel Prices: Prices include tax


GlobalAir.com Airport Resource Center model-print
model-print
model-print
model-print